Time;durP1;ratioP1;P1;durP2;ratioP2;P2;SDS_P1;SDS_P2;PMS_P1;PMS_P2;Temp;Humidity;BMP_temperature;BMP_pressure;BME280_temperature;BME280_humidity;BME280_pressure;Samples;Min_cycle;Max_cycle;Signal;HPM_P1;HPM_P2
2021/12/21 00:00:58;;;;;;;8.85;4.68;;;102.50;2227.20;;;;;;5013070;28;20037;-61
2021/12/21 00:03:25;;;;;;;7.60;4.05;;;102.40;2227.20;;;;;;5012389;28;20037;-60
2021/12/21 00:05:51;;;;;;;23.05;8.50;;;102.50;2227.20;;;;;;5012791;28;20453;-61
2021/12/21 00:08:17;;;;;;;177.15;80.03;;;102.50;2227.20;;;;;;5012597;28;20029;-61
2021/12/21 00:10:46;;;;;;;18.40;9.40;;;102.50;2227.20;;;;;;5012719;28;20546;-62
2021/12/21 00:16:04;;;;;;;67.68;28.40;;;102.50;2227.20;;;;;;5012426;28;20028;-62
2021/12/21 00:19:04;;;;;;;25.73;12.48;;;102.60;2227.20;;;;;;5012917;28;20030;-65
2021/12/21 00:21:36;;;;;;;22.45;11.80;;;102.60;2227.20;;;;;;5012656;28;20030;-60
2021/12/21 00:24:11;;;;;;;29.98;13.57;;;102.60;2227.20;;;;;;5012417;28;20472;-61
2021/12/21 00:26:37;;;;;;;20.70;8.00;;;102.60;2227.20;;;;;;5012118;28;20112;-61
2021/12/21 00:29:03;;;;;;;8.20;3.30;;;102.60;2227.20;;;;;;5012198;28;20045;-61
2021/12/21 00:31:32;;;;;;;10.25;3.60;;;102.50;2227.20;;;;;;5012358;28;20026;-60
2021/12/21 00:33:59;;;;;;;8.95;4.63;;;102.60;2227.20;;;;;;5011980;28;20412;-62
2021/12/21 00:36:27;;;;;;;77.22;37.38;;;102.70;2227.20;;;;;;5011941;28;20057;-61
2021/12/21 00:38:55;;;;;;;10.55;7.88;;;102.50;2227.20;;;;;;5012137;28;20439;-61
2021/12/21 00:41:21;;;;;;;129.93;58.55;;;102.50;2227.20;;;;;;5012192;28;20395;-61
2021/12/21 00:43:47;;;;;;;33.65;14.88;;;102.50;2227.20;;;;;;5012035;28;20038;-61
2021/12/21 00:46:14;;;;;;;66.07;29.98;;;102.50;2227.20;;;;;;5012047;28;20679;-61
2021/12/21 00:48:48;;;;;;;36.55;20.67;;;102.70;2227.20;;;;;;5012125;28;20472;-59
2021/12/21 00:51:15;;;;;;;27.52;13.75;;;102.50;2227.20;;;;;;5011766;28;20053;-62
2021/12/21 00:53:41;;;;;;;20.42;12.63;;;102.50;2227.20;;;;;;5011854;28;20025;-61
2021/12/21 00:56:07;;;;;;;85.70;51.80;;;102.60;2227.20;;;;;;5011660;28;20037;-61
2021/12/21 00:58:33;;;;;;;11.10;6.60;;;102.40;2227.20;;;;;;5011485;28;20080;-62
2021/12/21 01:01:04;;;;;;;12.48;6.57;;;102.60;2227.20;;;;;;5011958;28;20022;-61
2021/12/21 01:03:31;;;;;;;8.63;3.47;;;102.50;2227.20;;;;;;5011541;28;20044;-60
2021/12/21 01:08:42;;;;;;;11.10;5.43;;;102.50;2227.20;;;;;;5011621;28;20071;-61
2021/12/21 01:11:23;;;;;;;15.05;8.10;;;102.60;2227.20;;;;;;5011701;28;20091;-61
2021/12/21 01:16:32;;;;;;;63.97;27.00;;;102.50;2227.20;;;;;;5011312;28;20029;-61
2021/12/21 01:19:36;;;;;;;12.02;5.55;;;102.60;2227.20;;;;;;5011566;28;20083;-61
2021/12/21 01:22:09;;;;;;;6.57;3.38;;;102.50;2227.20;;;;;;5007210;28;20038;-61
2021/12/21 01:24:57;;;;;;;8.50;3.47;;;102.40;2227.20;;;;;;5011011;28;20091;-62
2021/12/21 01:27:32;;;;;;;16.20;8.35;;;102.50;2227.20;;;;;;5011127;28;20030;-61
2021/12/21 01:37:42;;;;;;;12.98;5.60;;;102.40;2227.20;;;;;;5010992;28;20026;-62
2021/12/21 01:40:36;;;;;;;12.93;5.38;;;102.40;2227.20;;;;;;5010773;28;20026;-62
2021/12/21 01:51:32;;;;;;;10.23;4.43;;;77.70;2227.20;;;;;;4931484;29;20092;-62
2021/12/21 01:53:57;;;;;;;8.30;3.72;;;77.70;2227.20;;;;;;4931352;29;20027;-62
2021/12/21 01:56:24;;;;;;;13.68;8.90;;;77.70;2227.20;;;;;;4931001;29;20027;-62
2021/12/21 01:58:51;;;;;;;10.73;4.93;;;77.70;2227.20;;;;;;4931346;29;20027;-62
2021/12/21 02:01:20;;;;;;;8.07;3.50;;;77.70;2227.20;;;;;;4931317;29;20039;-62
2021/12/21 02:03:48;;;;;;;9.18;4.97;;;77.70;2227.20;;;;;;4931319;29;20047;-64
2021/12/21 02:06:17;;;;;;;9.43;4.22;;;77.70;2227.20;;;;;;4931118;29;20478;-64
2021/12/21 02:08:43;;;;;;;8.05;3.63;;;77.70;2227.20;;;;;;4930865;29;20490;-62
2021/12/21 02:11:09;;;;;;;38.97;24.63;;;77.60;2227.20;;;;;;4930613;29;20034;-62
2021/12/21 02:13:37;;;;;;;6.72;4.10;;;77.60;2227.20;;;;;;4930824;29;20131;-62
2021/12/21 02:16:05;;;;;;;10.65;5.80;;;77.70;2227.20;;;;;;4930901;29;20035;-62
2021/12/21 02:18:56;;;;;;;6.20;3.72;;;102.40;2227.20;;;;;;4931085;29;20027;-62
2021/12/21 02:21:38;;;;;;;17.92;7.13;;;102.40;2227.20;;;;;;5009938;28;20164;-62
2021/12/21 02:24:10;;;;;;;6.80;3.88;;;102.40;2227.20;;;;;;5010031;28;20519;-62
2021/12/21 02:29:30;;;;;;;10.18;4.90;;;77.70;2227.20;;;;;;4979848;28;20133;-62
2021/12/21 02:31:56;;;;;;;11.13;4.18;;;102.40;2227.20;;;;;;5010143;28;20492;-61
2021/12/21 02:34:24;;;;;;;6.82;3.35;;;77.70;2227.20;;;;;;5009959;28;20049;-61
2021/12/21 02:36:52;;;;;;;8.52;4.38;;;77.60;2227.20;;;;;;5010115;28;20033;-62
2021/12/21 02:39:18;;;;;;;7.32;3.90;;;77.60;2227.20;;;;;;5010348;28;20480;-62
2021/12/21 02:41:44;;;;;;;6.22;3.10;;;77.60;2227.20;;;;;;5010160;28;20041;-61
2021/12/21 02:44:11;;;;;;;13.02;5.15;;;77.70;2227.20;;;;;;5010069;28;20037;-61
2021/12/21 02:46:39;;;;;;;19.00;8.68;;;77.50;2227.20;;;;;;5009964;28;20488;-61
2021/12/21 02:49:06;;;;;;;6.65;3.97;;;77.50;2227.20;;;;;;5009888;28;20460;-62
2021/12/21 02:51:32;;;;;;;7.13;3.63;;;77.50;2227.20;;;;;;5010073;28;20452;-62
2021/12/21 02:53:58;;;;;;;12.60;8.02;;;77.50;2227.20;;;;;;5010198;28;20468;-62
2021/12/21 02:56:24;;;;;;;8.45;3.88;;;77.50;2227.20;;;;;;5009915;28;20030;-61
2021/12/21 02:58:50;;;;;;;19.20;9.85;;;77.40;2227.20;;;;;;4992101;28;20038;-62
2021/12/21 03:01:16;;;;;;;35.97;16.60;;;77.30;2227.20;;;;;;5009814;28;20072;-61
2021/12/21 03:03:42;;;;;;;5.53;3.13;;;77.30;2227.20;;;;;;5009714;28;20045;-62
2021/12/21 03:06:13;;;;;;;5.43;2.80;;;77.30;2227.20;;;;;;5009931;28;20038;-62
2021/12/21 03:08:44;;;;;;;32.22;14.65;;;77.20;2227.20;;;;;;5010088;28;20104;-62
2021/12/21 03:16:21;;;;;;;6.68;3.45;;;77.20;2227.20;;;;;;5010025;28;20404;-62
2021/12/21 03:18:48;;;;;;;20.92;11.10;;;77.20;2227.20;;;;;;5009704;28;20022;-62
2021/12/21 03:21:13;;;;;;;5.50;2.85;;;77.20;2227.20;;;;;;5010025;28;20026;-62
2021/12/21 03:23:40;;;;;;;11.18;4.25;;;77.20;2227.20;;;;;;5013532;28;20036;-62
2021/12/21 03:26:06;;;;;;;6.13;2.55;;;77.10;2227.20;;;;;;5013215;28;20449;-62
2021/12/21 03:28:32;;;;;;;4.45;2.58;;;77.20;2227.20;;;;;;5013578;28;20105;-61
2021/12/21 03:30:58;;;;;;;4.32;2.90;;;77.10;2227.20;;;;;;5013625;28;20468;-61
2021/12/21 03:33:24;;;;;;;10.38;5.47;;;77.10;2227.20;;;;;;5012879;28;20034;-61
2021/12/21 03:35:50;;;;;;;8.63;4.57;;;77.10;2227.20;;;;;;5013194;28;20476;-60
2021/12/21 03:38:16;;;;;;;6.68;3.92;;;77.10;2227.20;;;;;;5012981;28;20034;-61
2021/12/21 03:40:43;;;;;;;12.45;7.25;;;77.00;2227.20;;;;;;5013180;28;20034;-61
2021/12/21 03:43:10;;;;;;;5.10;2.90;;;77.00;2227.20;;;;;;5013059;28;20034;-61
2021/12/21 03:45:47;;;;;;;6.78;4.63;;;76.90;2227.20;;;;;;5013151;28;20148;-61
2021/12/21 03:48:15;;;;;;;6.18;3.83;;;76.90;2227.20;;;;;;5013044;28;20022;-61
2021/12/21 03:50:40;;;;;;;13.48;5.78;;;76.80;2227.20;;;;;;5013187;28;20033;-62
2021/12/21 03:53:06;;;;;;;7.80;4.00;;;76.80;2227.20;;;;;;5013009;28;20026;-62
2021/12/21 03:55:32;;;;;;;4.13;3.13;;;52.10;2227.20;;;;;;5013091;28;20033;-62
2021/12/21 03:57:58;;;;;;;15.38;4.00;;;52.10;2227.20;;;;;;5013088;28;20042;-62
2021/12/21 04:00:27;;;;;;;5.22;3.35;;;51.90;2227.20;;;;;;5012762;28;20033;-62
2021/12/21 04:02:52;;;;;;;5.45;3.13;;;52.00;2227.20;;;;;;5012860;28;20163;-62
2021/12/21 04:05:18;;;;;;;10.32;4.90;;;51.90;2227.20;;;;;;5012909;28;20038;-63
2021/12/21 04:07:44;;;;;;;6.38;3.00;;;51.90;2227.20;;;;;;5012565;28;20033;-62
2021/12/21 04:10:10;;;;;;;10.77;4.80;;;51.80;2227.20;;;;;;5012969;28;20040;-63
2021/12/21 04:12:36;;;;;;;7.18;4.28;;;51.80;2227.20;;;;;;5012581;28;20380;-63
2021/12/21 04:15:03;;;;;;;7.57;4.03;;;51.70;2227.20;;;;;;5012834;28;20041;-63
2021/12/21 04:17:31;;;;;;;7.30;5.28;;;51.70;2227.20;;;;;;5012860;28;20030;-63
2021/12/21 04:19:57;;;;;;;9.55;5.78;;;51.70;2227.20;;;;;;5012474;28;20030;-62
2021/12/21 04:22:23;;;;;;;7.43;3.85;;;51.70;2227.20;;;;;;5012399;28;20022;-63
2021/12/21 04:24:48;;;;;;;6.22;3.72;;;51.70;2227.20;;;;;;5012418;28;20092;-63
2021/12/21 04:27:15;;;;;;;8.35;3.90;;;51.60;2227.20;;;;;;5012185;28;20507;-62
2021/12/21 04:29:41;;;;;;;4.82;3.20;;;51.50;2227.20;;;;;;5012306;28;20076;-62
2021/12/21 04:32:07;;;;;;;7.30;4.75;;;51.50;2227.20;;;;;;5012036;28;20396;-62
2021/12/21 04:34:34;;;;;;;5.53;3.45;;;51.50;2227.20;;;;;;5011426;28;20054;-62
2021/12/21 04:37:00;;;;;;;6.40;3.63;;;51.60;2227.20;;;;;;5012124;28;20473;-61
2021/12/21 04:39:37;;;;;;;6.57;3.30;;;51.50;2227.20;;;;;;5012135;28;20029;-62
2021/12/21 04:42:03;;;;;;;6.50;4.22;;;51.50;2227.20;;;;;;5012118;28;20026;-62
2021/12/21 04:44:29;;;;;;;13.32;9.95;;;51.50;2227.20;;;;;;5012177;28;20038;-63
2021/12/21 04:46:54;;;;;;;11.45;4.28;;;51.50;2227.20;;;;;;5011795;28;20026;-62
2021/12/21 04:49:20;;;;;;;7.93;3.58;;;51.30;2227.20;;;;;;5011935;28;20034;-62
2021/12/21 04:51:46;;;;;;;7.00;3.80;;;51.40;2227.20;;;;;;5011746;28;20030;-62
2021/12/21 04:54:12;;;;;;;15.43;8.60;;;51.50;2227.20;;;;;;5011967;28;20030;-62
2021/12/21 04:56:38;;;;;;;8.65;5.03;;;51.30;2227.20;;;;;;5011623;28;20113;-63
2021/12/21 04:59:04;;;;;;;11.90;6.13;;;51.30;2227.20;;;;;;5011576;28;20396;-62
2021/12/21 05:01:29;;;;;;;7.50;4.70;;;51.30;2227.20;;;;;;5011807;28;20040;-62
2021/12/21 05:03:55;;;;;;;11.95;6.70;;;51.20;2227.20;;;;;;5011186;28;20041;-63
2021/12/21 05:06:21;;;;;;;8.15;4.43;;;51.20;2227.20;;;;;;5011622;28;20034;-62
2021/12/21 05:09:03;;;;;;;9.32;3.75;;;51.20;2227.20;;;;;;5011532;28;20404;-63
2021/12/21 05:11:33;;;;;;;9.80;7.55;;;51.20;2227.20;;;;;;4996300;28;20396;-62
2021/12/21 05:13:59;;;;;;;9.02;4.80;;;26.50;2201.60;;;;;;4994735;28;20033;-63
2021/12/21 05:16:25;;;;;;;7.22;3.80;;;51.20;2227.20;;;;;;5011214;28;20103;-62
2021/12/21 05:18:51;;;;;;;6.28;3.60;;;51.20;2227.20;;;;;;5011459;28;20496;-62
2021/12/21 05:21:16;;;;;;;6.38;3.78;;;51.30;2227.20;;;;;;5011163;28;20060;-61
2021/12/21 05:23:42;;;;;;;10.48;5.15;;;51.20;2227.20;;;;;;5011296;28;20041;-62
2021/12/21 05:26:08;;;;;;;6.25;4.40;;;26.50;2201.60;;;;;;5011124;28;20030;-61
2021/12/21 05:28:33;;;;;;;7.65;3.83;;;26.50;2201.60;;;;;;5011174;28;20116;-62
2021/12/21 05:30:59;;;;;;;7.47;3.63;;;26.50;2201.60;;;;;;5011251;28;20376;-61
2021/12/21 05:33:27;;;;;;;9.75;4.18;;;26.50;2201.60;;;;;;5010807;28;20112;-62
2021/12/21 05:35:53;;;;;;;31.50;22.17;;;26.50;2201.60;;;;;;5011030;28;20030;-61
2021/12/21 05:38:28;;;;;;;7.88;5.15;;;26.50;2201.60;;;;;;5011133;28;20036;-62
2021/12/21 05:40:54;;;;;;;17.90;12.73;;;26.50;2201.60;;;;;;5010770;28;20100;-62
2021/12/21 05:43:21;;;;;;;7.40;4.60;;;26.50;2201.60;;;;;;5010935;28;20518;-61
2021/12/21 05:45:46;;;;;;;9.10;6.95;;;26.40;2201.60;;;;;;5009860;28;20038;-62
2021/12/21 05:48:12;;;;;;;9.48;4.43;;;26.40;2201.60;;;;;;5011137;28;20034;-61
2021/12/21 05:50:38;;;;;;;6.95;4.47;;;26.30;2201.60;;;;;;5010851;28;20036;-61
2021/12/21 05:53:04;;;;;;;11.25;5.03;;;26.30;2201.60;;;;;;5010489;28;20523;-61
2021/12/21 05:55:30;;;;;;;11.93;4.78;;;26.20;2201.60;;;;;;5011040;28;20038;-62
2021/12/21 05:57:56;;;;;;;8.40;4.80;;;26.40;2201.60;;;;;;5010680;28;20384;-61
2021/12/21 06:00:27;;;;;;;7.80;3.97;;;26.30;2201.60;;;;;;5010728;28;20034;-62
2021/12/21 06:02:53;;;;;;;8.75;5.10;;;26.30;2201.60;;;;;;4992731;28;20074;-62
2021/12/21 06:05:18;;;;;;;10.45;4.50;;;26.40;2201.60;;;;;;5010780;28;20041;-62
2021/12/21 06:07:47;;;;;;;11.80;4.50;;;26.40;2201.60;;;;;;5010506;28;20034;-60
2021/12/21 06:10:18;;;;;;;9.80;4.38;;;26.40;2201.60;;;;;;5010657;28;20396;-61
2021/12/21 06:26:00;;;;;;;8.73;4.68;;;51.40;2227.20;;;;;;5010554;28;20040;-64
2021/12/21 06:28:26;;;;;;;11.10;4.93;;;51.40;2227.20;;;;;;4992552;28;20132;-65
2021/12/21 06:30:52;;;;;;;52.10;27.38;;;51.50;2227.20;;;;;;5010457;28;20113;-65
2021/12/21 06:33:18;;;;;;;41.45;19.35;;;51.50;2227.20;;;;;;5009954;28;20030;-64
2021/12/21 06:35:44;;;;;;;11.35;6.22;;;51.60;2227.20;;;;;;5010147;28;20597;-67
2021/12/21 06:38:10;;;;;;;8.82;7.53;;;51.60;2227.20;;;;;;5010126;28;20076;-64
2021/12/21 06:40:36;;;;;;;24.17;11.05;;;51.70;2227.20;;;;;;5010070;28;20038;-65
2021/12/21 06:43:03;;;;;;;11.38;5.40;;;51.70;2227.20;;;;;;5010302;28;20361;-66
2021/12/21 06:53:27;;;;;;;36.28;18.90;;;51.90;2227.20;;;;;;5010102;28;20037;-64
2021/12/21 06:55:53;;;;;;;76.45;43.10;;;52.00;2227.20;;;;;;5010074;28;20018;-64
2021/12/21 06:58:19;;;;;;;16.17;10.82;;;52.10;2227.20;;;;;;5013704;28;20112;-64
2021/12/21 07:00:46;;;;;;;29.13;19.83;;;52.10;2227.20;;;;;;5013812;28;20033;-64
2021/12/21 07:03:13;;;;;;;15.63;9.55;;;52.10;2227.20;;;;;;5013572;28;20061;-64
2021/12/21 07:05:40;;;;;;;13.05;8.00;;;76.90;2227.20;;;;;;5013790;28;20037;-64
2021/12/21 07:08:11;;;;;;;8.35;5.93;;;76.80;2227.20;;;;;;5013565;28;20030;-64
2021/12/21 07:10:39;;;;;;;14.02;9.27;;;76.80;2227.20;;;;;;5013409;28;20030;-64
2021/12/21 07:18:35;;;;;;;9.68;5.78;;;76.80;2227.20;;;;;;4953768;29;20043;-65
2021/12/21 07:21:02;;;;;;;13.88;7.18;;;76.90;2227.20;;;;;;4953740;29;20039;-64
2021/12/21 07:23:30;;;;;;;7.65;5.10;;;76.90;2227.20;;;;;;4953348;29;20430;-64
2021/12/21 07:25:56;;;;;;;17.45;7.38;;;77.00;2227.20;;;;;;4952880;28;20035;-64
2021/12/21 07:28:22;;;;;;;14.27;5.40;;;77.00;2227.20;;;;;;4952992;29;20054;-64
2021/12/21 07:30:49;;;;;;;8.75;5.32;;;77.00;2227.20;;;;;;4952652;29;20035;-64
2021/12/21 07:33:16;;;;;;;8.48;4.90;;;76.90;2227.20;;;;;;4952234;28;20498;-64
2021/12/21 07:35:42;;;;;;;9.73;5.40;;;76.90;2227.20;;;;;;4952965;28;20059;-67
2021/12/21 07:38:08;;;;;;;8.20;4.90;;;76.90;2227.20;;;;;;4952530;29;20023;-64
2021/12/21 07:40:34;;;;;;;13.32;7.82;;;76.90;2227.20;;;;;;4952712;29;20259;-65
2021/12/21 07:43:00;;;;;;;6.70;4.07;;;76.90;2227.20;;;;;;4952835;29;20477;-64
2021/12/21 07:45:27;;;;;;;12.43;6.05;;;76.90;2227.20;;;;;;4952393;29;20417;-64
2021/12/21 07:47:53;;;;;;;10.95;5.30;;;77.00;2227.20;;;;;;4952780;29;20019;-64
2021/12/21 07:50:20;;;;;;;9.88;7.18;;;77.20;2227.20;;;;;;4952676;29;20074;-63
2021/12/21 07:52:46;;;;;;;17.70;6.65;;;77.20;2227.20;;;;;;4973206;28;20138;-64
2021/12/21 07:55:12;;;;;;;10.88;6.03;;;77.20;2227.20;;;;;;5013064;28;20030;-63
2021/12/21 07:57:38;;;;;;;12.10;5.78;;;77.20;2227.20;;;;;;5012825;28;20369;-63
2021/12/21 08:00:06;;;;;;;7.57;5.03;;;77.20;2227.20;;;;;;5012680;28;20088;-64
2021/12/21 08:02:33;;;;;;;10.65;5.40;;;77.20;2227.20;;;;;;5012699;28;20054;-64
2021/12/21 08:04:59;;;;;;;8.43;4.50;;;77.10;2227.20;;;;;;5012625;28;20052;-63
2021/12/21 08:07:31;;;;;;;59.05;28.90;;;77.10;2227.20;;;;;;5012473;28;20053;-63
2021/12/21 08:09:58;;;;;;;92.82;42.13;;;77.10;2227.20;;;;;;5011896;28;20033;-63
2021/12/21 08:12:24;;;;;;;60.47;29.10;;;77.10;2227.20;;;;;;5012448;28;20373;-63
2021/12/21 08:14:52;;;;;;;174.40;80.07;;;77.20;2227.20;;;;;;5012656;28;20040;-63
2021/12/21 08:17:19;;;;;;;13.25;7.15;;;77.40;2227.20;;;;;;5012641;28;20060;-63
2021/12/21 08:19:46;;;;;;;28.25;16.70;;;77.30;2227.20;;;;;;5012463;28;20041;-64
2021/12/21 08:22:12;;;;;;;23.48;12.95;;;77.30;2227.20;;;;;;5012576;28;20034;-64
2021/12/21 08:24:39;;;;;;;16.38;7.90;;;77.40;2227.20;;;;;;5012295;28;20042;-63
2021/12/21 08:27:05;;;;;;;43.22;24.33;;;77.40;2227.20;;;;;;5012361;28;20022;-63
2021/12/21 08:29:32;;;;;;;17.92;9.73;;;77.70;2227.20;;;;;;5021086;28;20029;-65
2021/12/21 08:31:58;;;;;;;17.27;9.15;;;77.60;2227.20;;;;;;5017672;28;20026;-63
2021/12/21 08:34:24;;;;;;;13.27;7.70;;;77.70;2227.20;;;;;;5022047;28;20048;-64
2021/12/21 08:36:50;;;;;;;21.73;12.82;;;77.70;2227.20;;;;;;5020630;28;20526;-64
2021/12/21 08:39:17;;;;;;;21.00;12.13;;;77.70;2227.20;;;;;;5024845;28;20026;-63
2021/12/21 08:41:44;;;;;;;19.20;11.90;;;77.70;2227.20;;;;;;5023145;28;20447;-62
2021/12/21 08:44:11;;;;;;;23.05;14.10;;;77.70;2227.20;;;;;;5019840;28;20060;-63
2021/12/21 08:46:40;;;;;;;19.85;11.75;;;102.50;2227.20;;;;;;5021300;28;20096;-63
2021/12/21 08:49:06;;;;;;;19.25;10.48;;;102.40;2227.20;;;;;;5020336;28;20152;-64
2021/12/21 08:51:32;;;;;;;39.45;21.25;;;102.50;2227.20;;;;;;5023402;28;20430;-65
2021/12/21 08:53:58;;;;;;;44.55;22.23;;;102.40;2227.20;;;;;;5031546;28;20029;-63
2021/12/21 08:56:24;;;;;;;25.08;13.65;;;102.40;2227.20;;;;;;5031750;28;20026;-65
2021/12/21 08:58:50;;;;;;;17.65;10.25;;;102.40;2227.20;;;;;;5031609;28;20503;-64
2021/12/21 09:01:17;;;;;;;12.88;7.35;;;102.50;2227.20;;;;;;5031410;28;20050;-64
2021/12/21 09:03:45;;;;;;;29.92;15.35;;;102.40;2227.20;;;;;;5031216;28;20040;-65
2021/12/21 09:06:11;;;;;;;18.80;8.23;;;102.40;2227.20;;;;;;5031311;28;20061;-64
2021/12/21 09:08:37;;;;;;;17.00;10.27;;;77.70;2227.20;;;;;;5031158;28;20056;-64
2021/12/21 09:11:05;;;;;;;22.60;12.10;;;77.60;2227.20;;;;;;5031295;28;20080;-64
2021/12/21 09:13:32;;;;;;;93.43;50.25;;;102.40;2227.20;;;;;;5031315;28;20021;-64
2021/12/21 09:15:58;;;;;;;72.55;36.97;;;102.60;2227.20;;;;;;5031113;28;20083;-64
2021/12/21 09:18:24;;;;;;;76.60;43.17;;;102.70;2227.20;;;;;;5031075;28;20033;-66
2021/12/21 09:20:50;;;;;;;18.52;10.68;;;103.10;2227.20;;;;;;5031010;28;20037;-64
2021/12/21 09:23:17;;;;;;;30.15;19.90;;;103.30;2227.20;;;;;;5030893;28;20080;-64
2021/12/21 09:25:42;;;;;;;8.07;4.55;;;128.80;2150.40;;;;;;5031103;28;20033;-64
2021/12/21 09:28:08;;;;;;;16.50;9.50;;;128.10;2176.00;;;;;;5031182;28;20037;-63
2021/12/21 09:30:34;;;;;;;9.63;6.03;;;128.10;2150.40;;;;;;5012900;28;20107;-64
2021/12/21 09:33:00;;;;;;;18.15;11.35;;;128.40;2124.80;;;;;;5031476;28;20079;-64
2021/12/21 09:35:27;;;;;;;14.63;8.07;;;128.40;2099.20;;;;;;5030896;28;20394;-64
2021/12/21 09:37:53;;;;;;;11.02;6.80;;;128.50;2099.20;;;;;;5031065;28;20033;-64
2021/12/21 09:40:22;;;;;;;7.68;4.35;;;128.20;2099.20;;;;;;5031052;28;20052;-64
2021/12/21 09:42:48;;;;;;;7.43;5.10;;;128.10;2150.40;;;;;;5030653;28;20029;-65
2021/12/21 09:45:14;;;;;;;6.15;3.97;;;103.30;2099.20;;;;;;5031055;28;20063;-64
2021/12/21 09:47:40;;;;;;;9.40;6.38;;;128.00;2099.20;;;;;;5031462;28;20428;-64
2021/12/21 09:50:08;;;;;;;10.77;7.32;;;128.40;2099.20;;;;;;5030575;28;20028;-63
2021/12/21 09:52:35;;;;;;;7.60;4.53;;;128.30;2099.20;;;;;;5030407;28;20048;-64
2021/12/21 09:55:04;;;;;;;12.00;7.45;;;128.30;2099.20;;;;;;5030644;28;20387;-63
2021/12/21 09:57:30;;;;;;;9.90;4.72;;;128.20;2073.60;;;;;;5030664;28;20052;-64
2021/12/21 09:59:55;;;;;;;9.13;3.97;;;128.00;2073.60;;;;;;5030277;28;20018;-64
2021/12/21 10:02:26;;;;;;;11.15;7.15;;;128.20;2073.60;;;;;;5030403;28;20021;-65
2021/12/21 10:04:58;;;;;;;12.48;7.70;;;128.30;2048.00;;;;;;5030571;28;20045;-63
2021/12/21 10:07:25;;;;;;;9.13;5.60;;;128.60;2048.00;;;;;;5030146;28;20028;-64
2021/12/21 10:10:09;;;;;;;13.60;8.13;;;128.60;2022.40;;;;;;5030477;28;20044;-63
2021/12/21 10:12:41;;;;;;;9.60;5.35;;;128.70;2022.40;;;;;;5030025;28;20037;-64
2021/12/21 10:15:14;;;;;;;15.40;7.15;;;128.70;2022.40;;;;;;5030236;28;20037;-63
2021/12/21 10:17:50;;;;;;;7.43;4.00;;;128.70;1971.20;;;;;;5030207;28;20030;-63
2021/12/21 10:20:49;;;;;;;7.38;4.40;;;128.70;1996.80;;;;;;5030021;28;20038;-63
2021/12/21 10:23:20;;;;;;;8.63;4.75;;;128.40;1996.80;;;;;;5028982;28;20038;-64
2021/12/21 10:26:12;;;;;;;31.88;20.88;;;128.30;1996.80;;;;;;5029893;28;20029;-64
2021/12/21 10:28:38;;;;;;;15.57;12.07;;;103.20;2022.40;;;;;;5029898;28;20049;-63
2021/12/21 10:31:10;;;;;;;18.00;11.55;;;103.20;2048.00;;;;;;5030891;28;20479;-64
2021/12/21 10:33:37;;;;;;;11.52;8.02;;;103.30;2022.40;;;;;;5036320;28;20048;-63
2021/12/21 10:36:06;;;;;;;22.52;8.63;;;128.10;2073.60;;;;;;5036613;28;20116;-64
2021/12/21 10:38:40;;;;;;;15.20;9.48;;;128.10;1996.80;;;;;;5036659;28;20113;-63
2021/12/21 10:41:10;;;;;;;9.35;5.50;;;103.20;1971.20;;;;;;5036421;28;20037;-63
2021/12/21 10:43:36;;;;;;;18.52;9.63;;;103.10;1996.80;;;;;;5036295;28;20044;-64
2021/12/21 10:46:02;;;;;;;23.35;15.27;;;103.00;2022.40;;;;;;5036617;28;20022;-64
2021/12/21 10:48:30;;;;;;;13.15;6.93;;;103.00;2022.40;;;;;;5036751;28;20025;-63
2021/12/21 10:50:56;;;;;;;26.92;15.98;;;103.00;2048.00;;;;;;5036247;28;20026;-63
2021/12/21 10:53:25;;;;;;;41.90;25.27;;;103.30;2048.00;;;;;;5036481;28;20025;-63
2021/12/21 10:56:08;;;;;;;17.08;10.90;;;103.30;1996.80;;;;;;5036451;28;20036;-63
2021/12/21 10:58:39;;;;;;;23.75;12.77;;;103.30;2022.40;;;;;;5036254;28;20040;-63
2021/12/21 11:01:09;;;;;;;11.65;8.00;;;128.10;2048.00;;;;;;5036280;28;20017;-64
2021/12/21 11:03:40;;;;;;;33.45;18.60;;;128.10;2073.60;;;;;;5035910;28;20049;-64
2021/12/21 11:06:13;;;;;;;14.25;8.90;;;103.30;2022.40;;;;;;5036083;28;20481;-64
2021/12/21 11:08:41;;;;;;;10.75;6.65;;;103.30;2022.40;;;;;;5036254;28;20049;-64
2021/12/21 11:11:11;;;;;;;12.13;6.85;;;128.10;2048.00;;;;;;5036200;28;20031;-63
2021/12/21 11:13:38;;;;;;;8.23;4.85;;;128.40;2048.00;;;;;;5036019;28;20033;-63
2021/12/21 11:16:07;;;;;;;9.95;6.00;;;128.30;2022.40;;;;;;5036097;28;20022;-64
2021/12/21 11:18:37;;;;;;;8.25;4.50;;;128.50;2022.40;;;;;;5036426;28;20029;-64
2021/12/21 11:21:09;;;;;;;96.03;54.17;;;128.90;1996.80;;;;;;5036420;28;20013;-63
2021/12/21 11:23:35;;;;;;;21.63;13.50;;;128.90;1971.20;;;;;;5035774;28;20033;-63
2021/12/21 11:26:02;;;;;;;49.53;30.80;;;153.60;1945.60;;;;;;5036478;28;20057;-63
2021/12/21 11:28:35;;;;;;;41.80;26.13;;;153.70;1971.20;;;;;;5036212;28;20021;-64
2021/12/21 11:31:03;;;;;;;11.52;7.32;;;153.80;1945.60;;;;;;5036314;28;20033;-64
2021/12/21 11:33:35;;;;;;;23.25;15.43;;;153.60;1945.60;;;;;;5036059;28;20037;-65
2021/12/21 11:38:47;;;;;;;12.90;7.75;;;154.10;1945.60;;;;;;5035767;28;20564;-63
2021/12/21 11:41:13;;;;;;;10.45;6.72;;;128.90;1945.60;;;;;;5036269;28;20438;-63
2021/12/21 11:44:02;;;;;;;6.57;3.97;;;128.80;1945.60;;;;;;5034006;28;20033;-64
2021/12/21 11:46:50;;;;;;;7.10;4.78;;;128.60;1945.60;;;;;;5032798;28;20037;-63
2021/12/21 11:49:23;;;;;;;5.65;4.20;;;128.30;1971.20;;;;;;5032757;28;20033;-63
2021/12/21 11:51:49;;;;;;;8.90;5.05;;;128.50;1920.00;;;;;;5032999;28;20029;-63
2021/12/21 11:54:22;;;;;;;8.63;4.25;;;128.40;1945.60;;;;;;5032615;28;20026;-63
2021/12/21 11:56:47;;;;;;;7.45;5.57;;;128.60;1920.00;;;;;;5032595;28;20475;-63
2021/12/21 11:59:21;;;;;;;9.18;6.43;;;128.80;1894.40;;;;;;5032533;28;20071;-64
2021/12/21 12:01:47;;;;;;;8.43;4.82;;;128.70;1894.40;;;;;;5032690;28;20025;-65
2021/12/21 12:04:14;;;;;;;8.18;4.50;;;128.70;1868.80;;;;;;5032415;28;20496;-63
2021/12/21 12:06:45;;;;;;;7.78;4.78;;;128.70;1894.40;;;;;;5032548;28;20028;-63
2021/12/21 12:09:22;;;;;;;12.30;7.70;;;128.50;1920.00;;;;;;5032512;28;20025;-63
2021/12/21 12:11:48;;;;;;;14.85;6.18;;;128.50;1894.40;;;;;;5032223;28;20080;-63
2021/12/21 12:14:22;;;;;;;9.15;5.20;;;128.70;1894.40;;;;;;5032301;28;20037;-63
2021/12/21 12:16:52;;;;;;;9.48;5.43;;;128.80;1920.00;;;;;;5032472;28;20371;-63
2021/12/21 12:19:21;;;;;;;7.70;4.20;;;128.80;1920.00;;;;;;5026259;28;20064;-62
2021/12/21 12:21:57;;;;;;;6.47;4.00;;;128.90;1920.00;;;;;;5031999;28;20080;-63
2021/12/21 12:24:26;;;;;;;6.80;4.35;;;128.90;1868.80;;;;;;5032403;28;20563;-64
2021/12/21 12:26:58;;;;;;;5.90;4.05;;;153.60;1894.40;;;;;;5032327;28;20021;-63
2021/12/21 12:29:25;;;;;;;12.75;7.95;;;153.80;1894.40;;;;;;5032011;28;20028;-63
2021/12/21 12:32:07;;;;;;;12.55;7.80;;;153.80;1868.80;;;;;;5025799;28;20065;-63
2021/12/21 12:34:36;;;;;;;18.33;10.48;;;153.70;1894.40;;;;;;5020135;28;20508;-64
2021/12/21 12:37:21;;;;;;;26.40;18.35;;;153.90;1868.80;;;;;;5012036;28;20084;-63
2021/12/21 12:39:53;;;;;;;18.25;10.52;;;153.80;1843.20;;;;;;5011976;28;20032;-63
2021/12/21 12:42:28;;;;;;;13.10;6.03;;;153.90;1868.80;;;;;;5012152;28;20022;-63
2021/12/21 12:45:03;;;;;;;88.95;71.13;;;153.70;1894.40;;;;;;5011896;28;20030;-63
2021/12/21 12:47:28;;;;;;;11.85;8.85;;;153.70;1868.80;;;;;;5010634;28;20032;-64
2021/12/21 12:49:55;;;;;;;19.23;12.05;;;153.80;1894.40;;;;;;5010146;28;20049;-63
2021/12/21 12:52:30;;;;;;;9.73;5.63;;;153.80;1868.80;;;;;;5011045;28;20515;-63
2021/12/21 12:55:03;;;;;;;7.25;5.70;;;153.60;1894.40;;;;;;4992423;28;20439;-63
2021/12/21 12:57:35;;;;;;;20.27;10.30;;;128.90;1894.40;;;;;;5010922;28;20055;-62
2021/12/21 13:00:13;;;;;;;10.85;6.90;;;128.80;1920.00;;;;;;5010276;28;20113;-63
2021/12/21 13:03:01;;;;;;;12.10;6.97;;;128.60;1920.00;;;;;;5010187;28;20543;-63
2021/12/21 13:05:41;;;;;;;11.95;7.72;;;128.60;1920.00;;;;;;5009901;28;20048;-65
2021/12/21 13:08:13;;;;;;;25.13;14.02;;;128.40;1945.60;;;;;;5009993;28;20022;-64
2021/12/21 13:10:41;;;;;;;27.08;13.20;;;128.50;1945.60;;;;;;5010075;28;20105;-63
2021/12/21 13:13:07;;;;;;;23.92;13.45;;;128.60;1945.60;;;;;;5009797;28;20038;-64
2021/12/21 13:15:39;;;;;;;10.57;5.85;;;128.40;1920.00;;;;;;5009777;28;20030;-64
2021/12/21 13:18:07;;;;;;;9.75;5.38;;;128.30;1945.60;;;;;;5010041;28;20034;-64
2021/12/21 13:20:34;;;;;;;6.75;3.97;;;128.40;1945.60;;;;;;5009843;28;20026;-63
2021/12/21 13:23:09;;;;;;;15.95;8.18;;;128.40;1945.60;;;;;;5012179;28;20029;-63